sensor_id;sensor_type;location;lat;lon;timestamp;pressure;altitude;pressure_sealevel;temperature;humidity
26112;BME280;13829;48.990;8.346;2023-03-12T00:01:15;100215.19;;;1.38;80.92
26112;BME280;13829;48.990;8.346;2023-03-12T00:03:43;100208.06;;;1.32;80.88
26112;BME280;13829;48.990;8.346;2023-03-12T00:06:10;100207.00;;;1.27;81.03
26112;BME280;13829;48.990;8.346;2023-03-12T00:08:37;100209.66;;;1.28;81.22
26112;BME280;13829;48.990;8.346;2023-03-12T00:11:07;100211.19;;;1.23;81.07
26112;BME280;13829;48.990;8.346;2023-03-12T00:13:34;100212.25;;;1.07;81.66
26112;BME280;13829;48.990;8.346;2023-03-12T00:16:07;100206.72;;;0.98;81.42
26112;BME280;13829;48.990;8.346;2023-03-12T00:18:36;100208.94;;;0.89;82.56
26112;BME280;13829;48.990;8.346;2023-03-12T00:21:06;100196.69;;;0.85;82.57
26112;BME280;13829;48.990;8.346;2023-03-12T00:23:34;100206.47;;;0.92;82.84
26112;BME280;13829;48.990;8.346;2023-03-12T00:26:02;100212.47;;;0.91;83.23
26112;BME280;13829;48.990;8.346;2023-03-12T00:28:30;100214.59;;;1.01;82.32
26112;BME280;13829;48.990;8.346;2023-03-12T00:30:57;100204.88;;;1.17;82.49
26112;BME280;13829;48.990;8.346;2023-03-12T00:33:25;100211.34;;;1.05;82.52
26112;BME280;13829;48.990;8.346;2023-03-12T00:35:54;100207.44;;;0.94;81.91
26112;BME280;13829;48.990;8.346;2023-03-12T00:38:22;100200.53;;;0.94;83.04
26112;BME280;13829;48.990;8.346;2023-03-12T00:40:49;100199.22;;;1.04;83.12
26112;BME280;13829;48.990;8.346;2023-03-12T00:43:15;100200.03;;;1.03;83.38
26112;BME280;13829;48.990;8.346;2023-03-12T00:45:43;100195.41;;;0.96;83.55
26112;BME280;13829;48.990;8.346;2023-03-12T00:48:10;100195.56;;;0.99;84.11
26112;BME280;13829;48.990;8.346;2023-03-12T00:50:37;100203.31;;;0.99;84.24
26112;BME280;13829;48.990;8.346;2023-03-12T00:53:05;100210.88;;;1.16;84.53
26112;BME280;13829;48.990;8.346;2023-03-12T00:55:32;100205.22;;;1.26;83.95
26112;BME280;13829;48.990;8.346;2023-03-12T00:57:59;100210.75;;;1.35;83.49
26112;BME280;13829;48.990;8.346;2023-03-12T01:00:27;100207.03;;;1.50;83.30
26112;BME280;13829;48.990;8.346;2023-03-12T01:02:54;100209.66;;;1.51;82.83
26112;BME280;13829;48.990;8.346;2023-03-12T01:05:21;100204.44;;;1.50;82.66
26112;BME280;13829;48.990;8.346;2023-03-12T01:07:48;100206.50;;;1.36;82.96
26112;BME280;13829;48.990;8.346;2023-03-12T01:10:19;100214.06;;;1.31;82.63
26112;BME280;13829;48.990;8.346;2023-03-12T01:12:46;100208.13;;;1.34;84.11
26112;BME280;13829;48.990;8.346;2023-03-12T01:15:16;100215.94;;;1.35;84.54
26112;BME280;13829;48.990;8.346;2023-03-12T01:17:44;100208.38;;;1.40;84.44
26112;BME280;13829;48.990;8.346;2023-03-12T01:20:11;100214.78;;;1.50;83.70
26112;BME280;13829;48.990;8.346;2023-03-12T01:22:38;100211.59;;;1.57;82.99
26112;BME280;13829;48.990;8.346;2023-03-12T01:25:06;100211.31;;;1.49;83.30
26112;BME280;13829;48.990;8.346;2023-03-12T01:27:35;100215.94;;;1.35;83.74
26112;BME280;13829;48.990;8.346;2023-03-12T01:30:04;100216.84;;;1.36;84.16
26112;BME280;13829;48.990;8.346;2023-03-12T01:32:31;100215.69;;;1.29;83.92
26112;BME280;13829;48.990;8.346;2023-03-12T01:34:59;100217.38;;;1.27;84.19
26112;BME280;13829;48.990;8.346;2023-03-12T01:37:26;100213.25;;;1.32;85.05
26112;BME280;13829;48.990;8.346;2023-03-12T01:39:53;100209.75;;;1.32;84.82
26112;BME280;13829;48.990;8.346;2023-03-12T01:42:21;100212.19;;;1.27;85.13
26112;BME280;13829;48.990;8.346;2023-03-12T01:44:52;100209.00;;;1.34;85.37
26112;BME280;13829;48.990;8.346;2023-03-12T01:47:19;100205.72;;;1.38;85.30
26112;BME280;13829;48.990;8.346;2023-03-12T01:49:49;100207.59;;;1.42;84.94
26112;BME280;13829;48.990;8.346;2023-03-12T01:52:21;100198.16;;;1.67;83.63
26112;BME280;13829;48.990;8.346;2023-03-12T01:54:54;100195.16;;;1.56;83.94
26112;BME280;13829;48.990;8.346;2023-03-12T01:57:30;100197.53;;;1.50;84.32
26112;BME280;13829;48.990;8.346;2023-03-12T02:00:10;100186.97;;;1.45;84.92
26112;BME280;13829;48.990;8.346;2023-03-12T02:02:40;100176.50;;;1.42;84.89
26112;BME280;13829;48.990;8.346;2023-03-12T02:05:16;100179.09;;;1.42;85.55
26112;BME280;13829;48.990;8.346;2023-03-12T02:07:45;100178.81;;;1.35;86.01
26112;BME280;13829;48.990;8.346;2023-03-12T02:10:13;100177.03;;;1.34;86.25
26112;BME280;13829;48.990;8.346;2023-03-12T02:12:39;100182.16;;;1.32;86.46
26112;BME280;13829;48.990;8.346;2023-03-12T02:15:10;100174.25;;;1.29;86.66
26112;BME280;13829;48.990;8.346;2023-03-12T02:17:38;100172.63;;;1.31;87.59
26112;BME280;13829;48.990;8.346;2023-03-12T02:20:16;100168.97;;;1.49;87.70
26112;BME280;13829;48.990;8.346;2023-03-12T02:22:51;100173.31;;;1.50;87.85
26112;BME280;13829;48.990;8.346;2023-03-12T02:25:34;100173.66;;;1.59;87.78
26112;BME280;13829;48.990;8.346;2023-03-12T02:28:07;100171.53;;;1.71;87.10
26112;BME280;13829;48.990;8.346;2023-03-12T02:30:35;100174.03;;;1.70;87.70
26112;BME280;13829;48.990;8.346;2023-03-12T02:33:06;100171.41;;;1.68;87.65
26112;BME280;13829;48.990;8.346;2023-03-12T02:35:35;100168.00;;;1.69;88.11
26112;BME280;13829;48.990;8.346;2023-03-12T02:38:31;100163.91;;;1.76;88.20
26112;BME280;13829;48.990;8.346;2023-03-12T02:41:03;100147.22;;;1.92;87.61
26112;BME280;13829;48.990;8.346;2023-03-12T02:43:31;100150.84;;;1.97;87.09
26112;BME280;13829;48.990;8.346;2023-03-12T02:45:58;100151.41;;;1.88;87.14
26112;BME280;13829;48.990;8.346;2023-03-12T02:48:25;100146.03;;;1.84;87.41
26112;BME280;13829;48.990;8.346;2023-03-12T02:50:52;100153.38;;;1.95;86.64
26112;BME280;13829;48.990;8.346;2023-03-12T02:53:19;100149.97;;;1.97;86.62
26112;BME280;13829;48.990;8.346;2023-03-12T02:55:46;100158.63;;;1.73;87.01
26112;BME280;13829;48.990;8.346;2023-03-12T02:58:14;100164.81;;;2.01;86.96
26112;BME280;13829;48.990;8.346;2023-03-12T03:00:41;100163.16;;;2.03;87.11
26112;BME280;13829;48.990;8.346;2023-03-12T03:03:08;100158.03;;;2.04;87.42
26112;BME280;13829;48.990;8.346;2023-03-12T03:05:35;100162.47;;;2.08;87.75
26112;BME280;13829;48.990;8.346;2023-03-12T03:08:03;100162.25;;;2.26;87.60
26112;BME280;13829;48.990;8.346;2023-03-12T03:10:30;100154.63;;;2.31;87.15
26112;BME280;13829;48.990;8.346;2023-03-12T03:12:57;100140.31;;;2.42;87.36
26112;BME280;13829;48.990;8.346;2023-03-12T03:15:25;100145.38;;;2.65;84.76
26112;BME280;13829;48.990;8.346;2023-03-12T03:17:52;100143.41;;;2.58;84.79
26112;BME280;13829;48.990;8.346;2023-03-12T03:20:19;100136.34;;;2.54;84.44
26112;BME280;13829;48.990;8.346;2023-03-12T03:22:48;100129.59;;;2.59;84.16
26112;BME280;13829;48.990;8.346;2023-03-12T03:25:16;100127.66;;;2.53;83.92
26112;BME280;13829;48.990;8.346;2023-03-12T03:27:46;100132.50;;;2.42;83.86
26112;BME280;13829;48.990;8.346;2023-03-12T03:30:14;100130.78;;;2.43;83.93
26112;BME280;13829;48.990;8.346;2023-03-12T03:32:43;100129.22;;;2.48;84.23
26112;BME280;13829;48.990;8.346;2023-03-12T03:35:10;100134.41;;;2.48;84.71
26112;BME280;13829;48.990;8.346;2023-03-12T03:37:37;100138.00;;;2.52;84.38
26112;BME280;13829;48.990;8.346;2023-03-12T03:40:06;100135.72;;;2.61;83.95
26112;BME280;13829;48.990;8.346;2023-03-12T03:42:36;100124.69;;;2.68;82.99
26112;BME280;13829;48.990;8.346;2023-03-12T03:45:06;100128.66;;;2.84;80.96
26112;BME280;13829;48.990;8.346;2023-03-12T03:47:33;100127.28;;;2.68;81.78
26112;BME280;13829;48.990;8.346;2023-03-12T03:50:03;100124.81;;;2.71;82.35
26112;BME280;13829;48.990;8.346;2023-03-12T03:52:31;100119.53;;;2.70;82.91
26112;BME280;13829;48.990;8.346;2023-03-12T03:54:58;100113.59;;;2.72;83.12
26112;BME280;13829;48.990;8.346;2023-03-12T03:57:25;100114.63;;;2.77;82.86
26112;BME280;13829;48.990;8.346;2023-03-12T03:59:52;100116.91;;;2.68;83.17
26112;BME280;13829;48.990;8.346;2023-03-12T04:02:19;100120.16;;;2.61;84.47
26112;BME280;13829;48.990;8.346;2023-03-12T04:04:46;100126.72;;;2.50;85.78
26112;BME280;13829;48.990;8.346;2023-03-12T04:07:15;100134.31;;;2.45;85.30
26112;BME280;13829;48.990;8.346;2023-03-12T04:09:42;100134.81;;;2.60;84.87
26112;BME280;13829;48.990;8.346;2023-03-12T04:12:09;100138.63;;;2.70;83.75
26112;BME280;13829;48.990;8.346;2023-03-12T04:14:39;100135.03;;;2.67;81.92
26112;BME280;13829;48.990;8.346;2023-03-12T04:17:06;100138.22;;;2.58;81.36
26112;BME280;13829;48.990;8.346;2023-03-12T04:19:34;100135.63;;;2.58;81.92
26112;BME280;13829;48.990;8.346;2023-03-12T04:22:01;100134.16;;;2.66;82.23
26112;BME280;13829;48.990;8.346;2023-03-12T04:24:30;100149.22;;;2.76;82.88
26112;BME280;13829;48.990;8.346;2023-03-12T04:26:57;100140.50;;;2.76;81.04
26112;BME280;13829;48.990;8.346;2023-03-12T04:29:24;100147.09;;;2.92;81.71
26112;BME280;13829;48.990;8.346;2023-03-12T04:31:51;100141.09;;;2.94;81.33
26112;BME280;13829;48.990;8.346;2023-03-12T04:34:19;100142.53;;;3.12;81.39
26112;BME280;13829;48.990;8.346;2023-03-12T04:36:46;100139.22;;;3.18;81.52
26112;BME280;13829;48.990;8.346;2023-03-12T04:39:16;100148.28;;;3.31;81.75
26112;BME280;13829;48.990;8.346;2023-03-12T04:41:45;100152.81;;;3.38;82.64
26112;BME280;13829;48.990;8.346;2023-03-12T04:44:12;100149.22;;;3.33;83.25
26112;BME280;13829;48.990;8.346;2023-03-12T04:46:39;100150.25;;;3.39;84.57
26112;BME280;13829;48.990;8.346;2023-03-12T04:49:06;100139.78;;;3.36;84.91
26112;BME280;13829;48.990;8.346;2023-03-12T04:51:33;100138.53;;;3.23;84.91
26112;BME280;13829;48.990;8.346;2023-03-12T04:54:00;100135.16;;;3.26;85.88
26112;BME280;13829;48.990;8.346;2023-03-12T04:56:27;100136.25;;;3.34;87.22
26112;BME280;13829;48.990;8.346;2023-03-12T04:58:55;100133.59;;;3.33;89.10
26112;BME280;13829;48.990;8.346;2023-03-12T05:01:26;100126.88;;;3.39;89.97
26112;BME280;13829;48.990;8.346;2023-03-12T05:03:53;100132.94;;;3.38;91.68
26112;BME280;13829;48.990;8.346;2023-03-12T05:06:23;100131.22;;;3.40;91.87
26112;BME280;13829;48.990;8.346;2023-03-12T05:08:50;100121.19;;;3.53;92.87
26112;BME280;13829;48.990;8.346;2023-03-12T05:11:18;100123.16;;;3.60;94.25
26112;BME280;13829;48.990;8.346;2023-03-12T05:13:45;100119.97;;;3.70;93.63
26112;BME280;13829;48.990;8.346;2023-03-12T05:16:15;100124.00;;;3.61;92.17
26112;BME280;13829;48.990;8.346;2023-03-12T05:18:43;100117.25;;;3.67;91.84
26112;BME280;13829;48.990;8.346;2023-03-12T05:21:13;100111.22;;;3.68;91.10
26112;BME280;13829;48.990;8.346;2023-03-12T05:23:41;100111.41;;;3.74;91.94
26112;BME280;13829;48.990;8.346;2023-03-12T05:26:16;100107.97;;;3.75;92.42
26112;BME280;13829;48.990;8.346;2023-03-12T05:28:44;100112.94;;;3.66;92.89
26112;BME280;13829;48.990;8.346;2023-03-12T05:31:13;100115.31;;;3.58;94.11
26112;BME280;13829;48.990;8.346;2023-03-12T05:33:41;100116.75;;;3.49;95.57
26112;BME280;13829;48.990;8.346;2023-03-12T05:36:09;100113.22;;;3.47;96.51
26112;BME280;13829;48.990;8.346;2023-03-12T05:38:36;100112.47;;;3.51;96.98
26112;BME280;13829;48.990;8.346;2023-03-12T05:41:04;100101.38;;;3.56;97.11
26112;BME280;13829;48.990;8.346;2023-03-12T05:43:32;100096.56;;;3.70;95.81
26112;BME280;13829;48.990;8.346;2023-03-12T05:46:02;100091.50;;;3.75;93.99
26112;BME280;13829;48.990;8.346;2023-03-12T05:48:30;100085.50;;;3.78;94.00
26112;BME280;13829;48.990;8.346;2023-03-12T05:50:57;100081.88;;;3.72;94.50
26112;BME280;13829;48.990;8.346;2023-03-12T05:53:24;100083.75;;;3.78;94.38
26112;BME280;13829;48.990;8.346;2023-03-12T05:55:51;100082.56;;;3.65;94.97
26112;BME280;13829;48.990;8.346;2023-03-12T05:58:18;100085.25;;;3.70;95.96
26112;BME280;13829;48.990;8.346;2023-03-12T06:00:45;100079.28;;;3.72;95.99
26112;BME280;13829;48.990;8.346;2023-03-12T06:03:12;100085.63;;;3.84;95.12
26112;BME280;13829;48.990;8.346;2023-03-12T06:05:43;100080.69;;;3.93;95.00
26112;BME280;13829;48.990;8.346;2023-03-12T06:08:10;100080.38;;;3.81;94.61
26112;BME280;13829;48.990;8.346;2023-03-12T06:10:37;100076.19;;;3.87;95.67
26112;BME280;13829;48.990;8.346;2023-03-12T06:13:04;100085.56;;;3.81;96.22
26112;BME280;13829;48.990;8.346;2023-03-12T06:15:31;100088.81;;;3.73;96.50
26112;BME280;13829;48.990;8.346;2023-03-12T06:17:58;100094.53;;;3.60;96.73
26112;BME280;13829;48.990;8.346;2023-03-12T06:20:25;100095.38;;;3.59;96.69
26112;BME280;13829;48.990;8.346;2023-03-12T06:22:53;100085.03;;;3.62;96.59
26112;BME280;13829;48.990;8.346;2023-03-12T06:25:20;100083.38;;;3.64;96.38
26112;BME280;13829;48.990;8.346;2023-03-12T06:27:47;100085.19;;;3.67;95.87
26112;BME280;13829;48.990;8.346;2023-03-12T06:30:16;100096.78;;;3.78;94.84
26112;BME280;13829;48.990;8.346;2023-03-12T06:32:43;100096.47;;;3.99;94.37
26112;BME280;13829;48.990;8.346;2023-03-12T06:35:10;100097.59;;;3.77;94.90
26112;BME280;13829;48.990;8.346;2023-03-12T06:37:37;100100.56;;;3.91;95.22
26112;BME280;13829;48.990;8.346;2023-03-12T06:40:07;100100.19;;;3.77;94.66
26112;BME280;13829;48.990;8.346;2023-03-12T06:42:35;100105.00;;;3.95;93.16
26112;BME280;13829;48.990;8.346;2023-03-12T06:45:03;100094.38;;;3.86;94.71
26112;BME280;13829;48.990;8.346;2023-03-12T06:47:31;100095.38;;;3.91;94.96
26112;BME280;13829;48.990;8.346;2023-03-12T06:49:57;100093.03;;;4.00;94.20
26112;BME280;13829;48.990;8.346;2023-03-12T06:52:25;100090.81;;;4.14;94.98
26112;BME280;13829;48.990;8.346;2023-03-12T06:54:52;100084.69;;;4.14;93.19
26112;BME280;13829;48.990;8.346;2023-03-12T06:57:20;100097.47;;;4.39;93.52
26112;BME280;13829;48.990;8.346;2023-03-12T06:59:47;100094.41;;;4.56;92.02
26112;BME280;13829;48.990;8.346;2023-03-12T07:02:14;100105.13;;;4.68;91.67
26112;BME280;13829;48.990;8.346;2023-03-12T07:04:40;100107.00;;;4.72;89.40
26112;BME280;13829;48.990;8.346;2023-03-12T07:07:08;100105.13;;;4.68;89.54
26112;BME280;13829;48.990;8.346;2023-03-12T07:09:36;100104.31;;;4.71;89.88
26112;BME280;13829;48.990;8.346;2023-03-12T07:12:03;100104.28;;;4.68;90.04
26112;BME280;13829;48.990;8.346;2023-03-12T07:14:32;100104.97;;;4.62;89.73
26112;BME280;13829;48.990;8.346;2023-03-12T07:16:59;100120.34;;;4.50;90.67
26112;BME280;13829;48.990;8.346;2023-03-12T07:19:26;100120.63;;;4.62;90.13
26112;BME280;13829;48.990;8.346;2023-03-12T07:21:55;100120.84;;;4.71;92.38
26112;BME280;13829;48.990;8.346;2023-03-12T07:24:22;100127.75;;;4.69;92.12
26112;BME280;13829;48.990;8.346;2023-03-12T07:26:49;100136.03;;;4.53;93.56
26112;BME280;13829;48.990;8.346;2023-03-12T07:29:15;100136.44;;;4.35;92.87
26112;BME280;13829;48.990;8.346;2023-03-12T07:31:44;100140.69;;;4.31;93.26
26112;BME280;13829;48.990;8.346;2023-03-12T07:34:11;100132.72;;;4.25;93.38
26112;BME280;13829;48.990;8.346;2023-03-12T07:36:38;100131.03;;;4.27;94.98
26112;BME280;13829;48.990;8.346;2023-03-12T07:39:05;100130.94;;;4.24;94.62
26112;BME280;13829;48.990;8.346;2023-03-12T07:41:32;100129.47;;;4.34;96.52
26112;BME280;13829;48.990;8.346;2023-03-12T07:44:02;100132.94;;;4.34;97.05
26112;BME280;13829;48.990;8.346;2023-03-12T07:46:29;100126.91;;;4.35;98.53
26112;BME280;13829;48.990;8.346;2023-03-12T07:48:58;100133.34;;;4.50;98.72
26112;BME280;13829;48.990;8.346;2023-03-12T07:51:25;100135.38;;;4.28;97.97
26112;BME280;13829;48.990;8.346;2023-03-12T07:53:52;100133.47;;;4.21;97.98
26112;BME280;13829;48.990;8.346;2023-03-12T07:56:19;100122.03;;;4.14;98.42
26112;BME280;13829;48.990;8.346;2023-03-12T07:58:46;100133.31;;;4.15;99.51
26112;BME280;13829;48.990;8.346;2023-03-12T08:01:13;100125.84;;;4.27;99.29
26112;BME280;13829;48.990;8.346;2023-03-12T08:03:40;100132.66;;;4.57;99.97
26112;BME280;13829;48.990;8.346;2023-03-12T08:06:08;100127.41;;;4.55;100.00
26112;BME280;13829;48.990;8.346;2023-03-12T08:08:36;100129.63;;;4.75;100.00
26112;BME280;13829;48.990;8.346;2023-03-12T08:11:07;100141.44;;;4.62;100.00
26112;BME280;13829;48.990;8.346;2023-03-12T08:13:35;100146.22;;;4.44;100.00
26112;BME280;13829;48.990;8.346;2023-03-12T08:16:02;100151.66;;;4.53;100.00
26112;BME280;13829;48.990;8.346;2023-03-12T08:18:29;100155.53;;;4.69;100.00
26112;BME280;13829;48.990;8.346;2023-03-12T08:20:56;100159.47;;;4.88;100.00
26112;BME280;13829;48.990;8.346;2023-03-12T08:23:24;100159.22;;;4.79;100.00
26112;BME280;13829;48.990;8.346;2023-03-12T08:25:53;100156.53;;;4.74;100.00
26112;BME280;13829;48.990;8.346;2023-03-12T08:28:22;100165.97;;;4.70;100.00
26112;BME280;13829;48.990;8.346;2023-03-12T08:30:52;100159.00;;;4.69;100.00
26112;BME280;13829;48.990;8.346;2023-03-12T08:33:20;100157.69;;;4.87;100.00
26112;BME280;13829;48.990;8.346;2023-03-12T08:35:48;100169.16;;;4.95;100.00
26112;BME280;13829;48.990;8.346;2023-03-12T08:38:16;100150.44;;;5.12;100.00
26112;BME280;13829;48.990;8.346;2023-03-12T08:40:44;100153.25;;;5.19;100.00
26112;BME280;13829;48.990;8.346;2023-03-12T08:43:11;100147.25;;;5.23;100.00
26112;BME280;13829;48.990;8.346;2023-03-12T08:45:38;100154.75;;;5.10;100.00
26112;BME280;13829;48.990;8.346;2023-03-12T08:48:06;100160.16;;;5.17;100.00
26112;BME280;13829;48.990;8.346;2023-03-12T08:50:33;100146.31;;;5.21;100.00
26112;BME280;13829;48.990;8.346;2023-03-12T08:53:00;100172.66;;;4.94;100.00
26112;BME280;13829;48.990;8.346;2023-03-12T08:55:27;100147.97;;;5.18;100.00
26112;BME280;13829;48.990;8.346;2023-03-12T08:57:55;100160.69;;;5.04;100.00
26112;BME280;13829;48.990;8.346;2023-03-12T09:00:23;100163.34;;;5.05;100.00
26112;BME280;13829;48.990;8.346;2023-03-12T09:02:50;100160.13;;;5.16;100.00
26112;BME280;13829;48.990;8.346;2023-03-12T09:05:18;100156.03;;;5.27;100.00
26112;BME280;13829;48.990;8.346;2023-03-12T09:07:45;100160.25;;;5.22;100.00
26112;BME280;13829;48.990;8.346;2023-03-12T09:10:15;100156.97;;;5.31;100.00
26112;BME280;13829;48.990;8.346;2023-03-12T09:12:42;100160.25;;;5.62;100.00
26112;BME280;13829;48.990;8.346;2023-03-12T09:15:12;100159.47;;;5.67;100.00
26112;BME280;13829;48.990;8.346;2023-03-12T09:17:39;100160.19;;;5.59;100.00
26112;BME280;13829;48.990;8.346;2023-03-12T09:20:10;100157.75;;;5.66;100.00
26112;BME280;13829;48.990;8.346;2023-03-12T09:22:38;100163.78;;;5.64;100.00
26112;BME280;13829;48.990;8.346;2023-03-12T09:25:09;100154.66;;;5.86;100.00
26112;BME280;13829;48.990;8.346;2023-03-12T09:27:37;100158.16;;;5.86;100.00
26112;BME280;13829;48.990;8.346;2023-03-12T09:30:09;100160.81;;;5.90;100.00
26112;BME280;13829;48.990;8.346;2023-03-12T09:32:38;100152.38;;;6.01;100.00
26112;BME280;13829;48.990;8.346;2023-03-12T09:35:06;100153.41;;;6.10;100.00
26112;BME280;13829;48.990;8.346;2023-03-12T09:37:34;100160.78;;;6.32;100.00
26112;BME280;13829;48.990;8.346;2023-03-12T09:40:02;100163.63;;;6.45;100.00
26112;BME280;13829;48.990;8.346;2023-03-12T09:42:40;100170.47;;;6.40;100.00
26112;BME280;13829;48.990;8.346;2023-03-12T09:45:16;100163.31;;;6.28;100.00
26112;BME280;13829;48.990;8.346;2023-03-12T09:47:50;100166.06;;;6.35;100.00
26112;BME280;13829;48.990;8.346;2023-03-12T09:50:24;100162.72;;;6.43;100.00
26112;BME280;13829;48.990;8.346;2023-03-12T09:52:58;100159.72;;;6.72;100.00
26112;BME280;13829;48.990;8.346;2023-03-12T09:55:33;100159.75;;;6.73;100.00
26112;BME280;13829;48.990;8.346;2023-03-12T09:58:01;100163.41;;;6.83;100.00
26112;BME280;13829;48.990;8.346;2023-03-12T10:00:32;100171.63;;;7.08;100.00
26112;BME280;13829;48.990;8.346;2023-03-12T10:03:27;100176.50;;;6.86;100.00
26112;BME280;13829;48.990;8.346;2023-03-12T10:06:10;100184.94;;;6.69;100.00
26112;BME280;13829;48.990;8.346;2023-03-12T10:08:53;100180.09;;;6.93;100.00
26112;BME280;13829;48.990;8.346;2023-03-12T10:11:37;100183.03;;;7.13;100.00
26112;BME280;13829;48.990;8.346;2023-03-12T10:14:28;100187.50;;;7.20;100.00
26112;BME280;13829;48.990;8.346;2023-03-12T10:17:24;100184.94;;;7.23;100.00
26112;BME280;13829;48.990;8.346;2023-03-12T10:20:45;100178.81;;;7.23;100.00
26112;BME280;13829;48.990;8.346;2023-03-12T10:23:30;100182.50;;;7.37;100.00
26112;BME280;13829;48.990;8.346;2023-03-12T10:26:08;100167.94;;;7.56;100.00
26112;BME280;13829;48.990;8.346;2023-03-12T10:28:42;100169.94;;;7.73;100.00
26112;BME280;13829;48.990;8.346;2023-03-12T10:31:18;100167.38;;;7.79;100.00
26112;BME280;13829;48.990;8.346;2023-03-12T10:33:53;100161.59;;;8.08;100.00
26112;BME280;13829;48.990;8.346;2023-03-12T10:36:26;100163.69;;;8.40;100.00
26112;BME280;13829;48.990;8.346;2023-03-12T10:38:54;100171.59;;;8.44;100.00
26112;BME280;13829;48.990;8.346;2023-03-12T10:41:26;100166.47;;;8.52;100.00
26112;BME280;13829;48.990;8.346;2023-03-12T10:43:56;100167.41;;;8.60;100.00
26112;BME280;13829;48.990;8.346;2023-03-12T10:47:06;100166.06;;;9.12;100.00
26112;BME280;13829;48.990;8.346;2023-03-12T10:49:35;100167.88;;;9.19;100.00
26112;BME280;13829;48.990;8.346;2023-03-12T10:52:14;100159.28;;;9.42;100.00
26112;BME280;13829;48.990;8.346;2023-03-12T10:54:43;100157.50;;;9.41;100.00
26112;BME280;13829;48.990;8.346;2023-03-12T10:57:12;100155.88;;;9.63;100.00
26112;BME280;13829;48.990;8.346;2023-03-12T10:59:42;100151.50;;;9.63;100.00
26112;BME280;13829;48.990;8.346;2023-03-12T11:02:30;100152.41;;;9.64;100.00
26112;BME280;13829;48.990;8.346;2023-03-12T11:05:01;100141.94;;;9.75;100.00
26112;BME280;13829;48.990;8.346;2023-03-12T11:07:32;100143.72;;;9.84;100.00
26112;BME280;13829;48.990;8.346;2023-03-12T11:10:19;100138.53;;;10.02;100.00
26112;BME280;13829;48.990;8.346;2023-03-12T11:13:28;100135.94;;;10.35;100.00
26112;BME280;13829;48.990;8.346;2023-03-12T11:15:57;100135.16;;;10.45;100.00
26112;BME280;13829;48.990;8.346;2023-03-12T11:18:32;100131.63;;;10.43;100.00
26112;BME280;13829;48.990;8.346;2023-03-12T11:21:16;100129.00;;;10.51;100.00
26112;BME280;13829;48.990;8.346;2023-03-12T11:24:08;100138.66;;;10.70;100.00
26112;BME280;13829;48.990;8.346;2023-03-12T11:26:49;100143.06;;;10.88;100.00
26112;BME280;13829;48.990;8.346;2023-03-12T11:29:26;100144.78;;;10.82;100.00
26112;BME280;13829;48.990;8.346;2023-03-12T11:32:02;100137.78;;;10.76;100.00
26112;BME280;13829;48.990;8.346;2023-03-12T11:34:33;100138.69;;;10.78;100.00
26112;BME280;13829;48.990;8.346;2023-03-12T11:37:10;100150.94;;;10.70;100.00
26112;BME280;13829;48.990;8.346;2023-03-12T11:39:56;100149.19;;;10.72;100.00
26112;BME280;13829;48.990;8.346;2023-03-12T11:42:47;100138.66;;;10.69;100.00
26112;BME280;13829;48.990;8.346;2023-03-12T11:45:26;100136.03;;;10.73;100.00
26112;BME280;13829;48.990;8.346;2023-03-12T11:48:15;100136.91;;;10.86;100.00
26112;BME280;13829;48.990;8.346;2023-03-12T11:51:04;100129.03;;;10.89;100.00
26112;BME280;13829;48.990;8.346;2023-03-12T11:54:19;100133.38;;;11.06;100.00
26112;BME280;13829;48.990;8.346;2023-03-12T11:56:54;100136.00;;;11.20;100.00
26112;BME280;13829;48.990;8.346;2023-03-12T11:59:39;100132.44;;;11.36;100.00
26112;BME280;13829;48.990;8.346;2023-03-12T12:02:24;100125.34;;;11.60;100.00
26112;BME280;13829;48.990;8.346;2023-03-12T12:05:19;100130.63;;;11.58;100.00
26112;BME280;13829;48.990;8.346;2023-03-12T12:08:11;100131.50;;;11.57;100.00
26112;BME280;13829;48.990;8.346;2023-03-12T12:10:55;100123.56;;;11.65;100.00
26112;BME280;13829;48.990;8.346;2023-03-12T12:13:38;100127.00;;;11.83;100.00
26112;BME280;13829;48.990;8.346;2023-03-12T12:16:26;100119.09;;;11.81;100.00
26112;BME280;13829;48.990;8.346;2023-03-12T12:19:12;100109.41;;;11.86;100.00
26112;BME280;13829;48.990;8.346;2023-03-12T12:22:08;100104.09;;;12.00;100.00
26112;BME280;13829;48.990;8.346;2023-03-12T12:25:02;100099.72;;;11.95;100.00
26112;BME280;13829;48.990;8.346;2023-03-12T12:27:44;100113.69;;;12.11;100.00
26112;BME280;13829;48.990;8.346;2023-03-12T12:30:22;100118.94;;;12.20;100.00
26112;BME280;13829;48.990;8.346;2023-03-12T12:33:15;100121.41;;;12.40;100.00
26112;BME280;13829;48.990;8.346;2023-03-12T12:35:47;100120.38;;;12.63;100.00
26112;BME280;13829;48.990;8.346;2023-03-12T12:38:21;100123.88;;;12.66;100.00
26112;BME280;13829;48.990;8.346;2023-03-12T12:41:00;100119.53;;;12.57;100.00
26112;BME280;13829;48.990;8.346;2023-03-12T12:43:35;100115.94;;;12.69;100.00
26112;BME280;13829;48.990;8.346;2023-03-12T12:46:09;100108.66;;;12.96;100.00
26112;BME280;13829;48.990;8.346;2023-03-12T12:48:41;100106.13;;;12.84;99.32
26112;BME280;13829;48.990;8.346;2023-03-12T12:51:09;100100.03;;;12.77;100.00
26112;BME280;13829;48.990;8.346;2023-03-12T12:53:45;100104.44;;;12.75;99.66
26112;BME280;13829;48.990;8.346;2023-03-12T12:56:22;100110.69;;;12.65;100.00
26112;BME280;13829;48.990;8.346;2023-03-12T12:59:04;100106.41;;;12.53;98.04
26112;BME280;13829;48.990;8.346;2023-03-12T13:01:38;100113.38;;;12.62;97.54
26112;BME280;13829;48.990;8.346;2023-03-12T13:04:11;100104.53;;;12.66;97.10
26112;BME280;13829;48.990;8.346;2023-03-12T13:07:02;100103.75;;;12.54;96.74
26112;BME280;13829;48.990;8.346;2023-03-12T13:09:39;100109.91;;;12.53;97.06
26112;BME280;13829;48.990;8.346;2023-03-12T13:12:13;100097.63;;;12.46;96.39
26112;BME280;13829;48.990;8.346;2023-03-12T13:14:43;100095.88;;;12.48;95.83
26112;BME280;13829;48.990;8.346;2023-03-12T13:17:27;100090.50;;;12.61;96.72